Flight Track Log - Related Links

Times and Time Zones

All times are in EST time to prevent confusion due to time zone crossing. See the AAL1326 flight status page for this flight to view local times or setup timezone preferences in your user account.

Time Position Orientation Groundspeed Altitude Reporting Facility
EST Latitude Longitude Course Direction KTS MPH feet Rate Location/Type
Thu 08:38:31 AM 36.1950 -95.9100 15° North 150 173 1,700  Level Kansas City Center
Thu 08:38:37 AM 36.1956 -95.9178 275° West 152 175 2,200 2,625 Climbing Kansas City Center
Thu 08:39:35 AM 36.2225 -95.9625 307° West 251 289 4,500 2,924 Climbing Kansas City Center
Thu 08:40:00 AM 36.3866 -95.8120 18° North  Level FlightAware Approximate
Thu 08:40:36 AM 36.3042 -95.9478 North 294 338 8,000  Level Kansas City Center
Thu 08:41:00 AM 36.4842 -95.7616 19° North  Level FlightAware Approximate
Thu 08:41:37 AM 36.3886 -95.9253 12° North 301 346 10,900  Level Kansas City Center
Thu 08:42:00 AM 36.5869 -95.7304 North  Level FlightAware Approximate
Thu 08:42:38 AM 36.4883 -95.8972 13° North 342 394 13,800  Level Kansas City Center
Thu 08:43:00 AM 36.6927 -95.7135 15° North  Level FlightAware Approximate
Thu 08:43:40 AM 36.5925 -95.8714 11° North 364 419 17,100  Level Kansas City Center
Thu 08:44:41 AM 36.6986 -95.8192 22° Northeast 404 465 20,300 2,852 Climbing Kansas City Center
Thu 08:45:42 AM 36.7994 -95.7378 33° Northeast 423 487 22,900 1,350 Climbing Kansas City Center
Thu 08:46:41 AM 36.9194 -95.6378 34° Northeast 427 491 23,000 49 Climbing Kansas City Center
Thu 08:47:44 AM 37.0172 -95.5556 34° Northeast 424 488 23,000  Level Kansas City Center
Thu 08:48:44 AM 37.1161 -95.4725 34° Northeast 424 488 23,000  Level Kansas City Center
Thu 08:49:48 AM 37.2147 -95.3911 33° Northeast 424 488 23,000  Level Kansas City Center
Thu 08:50:46 AM 37.3136 -95.3083 34° Northeast 423 487 23,000  Level Kansas City Center
Thu 08:51:50 AM 37.4117 -95.2244 34° Northeast 425 489 23,000  Level Kansas City Center
Thu 08:52:51 AM 37.5078 -95.1444 33° Northeast 417 480 23,000  Level Kansas City Center
Thu 08:53:52 AM 37.6039 -95.0636 34° Northeast 415 478 23,000  Level Kansas City Center
Thu 08:54:53 AM 37.6969 -94.9819 35° Northeast 417 480 23,000  Level Kansas City Center
Thu 08:55:53 AM 37.8044 -94.8914 34° Northeast 416 479 23,000  Level Kansas City Center
Thu 08:56:55 AM 37.8972 -94.8131 34° Northeast 418 481 23,000  Level Kansas City Center
Thu 08:57:56 AM 38.0039 -94.7192 35° Northeast 418 481 23,000  Level Kansas City Center
Thu 08:58:57 AM 38.0967 -94.6386 34° Northeast 420 483 23,000  Level Kansas City Center
Thu 09:00:00 AM 38.1886 -94.5603 34° Northeast 418 481 23,000  Level Kansas City Center
Thu 09:01:01 AM 38.2964 -94.4650 35° Northeast 420 483 23,000  Level Kansas City Center
Thu 09:02:01 AM 38.3878 -94.3756 37° Northeast 428 493 23,000  Level Kansas City Center
Thu 09:03:03 AM 38.4933 -94.2711 38° Northeast 430 495 23,000  Level Kansas City Center
Thu 09:04:05 AM 38.5833 -94.1819 38° Northeast 430 495 23,000  Level Kansas City Center
Thu 09:05:07 AM 38.6736 -94.0928 38° Northeast 429 494 23,000  Level Kansas City Center
Thu 09:06:07 AM 38.7792 -93.9875 38° Northeast 430 495 23,000  Level Kansas City Center
Thu 09:07:08 AM 38.8700 -93.8956 38° Northeast 434 499 23,000  Level Kansas City Center
Thu 09:08:08 AM 38.9744 -93.7892 38° Northeast 432 497 23,000  Level Kansas City Center
Thu 09:09:11 AM 39.0656 -93.6969 38° Northeast 434 499 23,000  Level Kansas City Center
Thu 09:10:13 AM 39.1567 -93.6033 39° Northeast 437 503 23,000  Level Kansas City Center
Thu 09:11:15 AM 39.2631 -93.4950 38° Northeast 438 504 23,000  Level Kansas City Center
Thu 09:12:13 AM 39.3514 -93.4067 38° Northeast 443 510 23,000  Level Kansas City Center
Thu 09:13:17 AM 39.4450 -93.3106 38° Northeast 437 503 23,000  Level Kansas City Center
Thu 09:14:16 AM 39.5572 -93.1942 39° Northeast 434 499 23,000  Level Kansas City Center
Thu 09:15:20 AM 39.6503 -93.0994 38° Northeast 429 494 23,000  Level Kansas City Center
Thu 09:16:20 AM 39.7419 -93.0003 40° Northeast 430 495 23,000  Level Kansas City Center
Thu 09:17:20 AM 39.8347 -92.9078 37° Northeast 426 490 23,000  Level Kansas City Center
Thu 09:18:24 AM 39.9261 -92.8117 39° Northeast 425 489 23,000  Level Kansas City Center
Thu 09:19:25 AM 40.0167 -92.7169 39° Northeast 423 487 23,000  Level Kansas City Center
Thu 09:20:26 AM 40.1117 -92.6158 39° Northeast 422 486 23,000  Level Kansas City Center
Thu 09:21:27 AM 40.1817 -92.4647 59° Northeast 437 503 23,000  Level Kansas City Center
Thu 09:22:31 AM 40.2336 -92.3217 65° Northeast 446 513 23,000  Level Kansas City Center
Thu 09:23:29 AM 40.2861 -92.1739 65° Northeast 452 520 23,000  Level Kansas City Center
Thu 09:24:33 AM 40.3397 -92.0242 65° Northeast 458 527 23,000  Level Kansas City Center
Thu 09:25:34 AM 40.4044 -91.8394 65° Northeast 466 536 23,000  Level Kansas City Center
Thu 09:26:35 AM 40.4586 -91.6858 65° Northeast 468 539 23,000  Level Kansas City Center
Thu 09:27:38 AM 40.5103 -91.5322 66° East 465 535 23,000  Level Kansas City Center
Thu 09:28:40 AM 40.5628 -91.3783 66° East 465 535 23,000  Level Kansas City Center
Thu 09:29:42 AM 40.6133 -91.2269 66° East 459 528 23,000  Level Kansas City Center
Thu 09:30:28 AM 40.6525 -91.1067 67° East 451 519 23,000  Level Chicago Center
Thu 09:31:29 AM 40.7067 -90.9553 65° Northeast 455 524 23,000  Level Chicago Center
Thu 09:32:31 AM 40.7583 -90.7994 66° East 462 532 23,000 -172 Level Chicago Center
Thu 09:38:27 AM 41.0656 -89.8748 66° East 457 526 21,800 -277 Descending FlightAware ADS-B
Thu 09:39:01 AM 41.0859 -89.8133 66° East 453 521 21,200 -475 Descending FlightAware ADS-B
Thu 09:40:08 AM 41.1421 -89.6417 66° East 457 526 21,000 -79 Descending FlightAware ADS-B (CYQU)
Thu 09:41:33 AM 41.0859 -89.8133 247° West 475 547 21,000 -898 Level FlightAware ADS-B
Thu 09:42:35 AM 41.1421 -89.6417 66° East 463 533 18,800 -2,231 Descending FlightAware ADS-B (CYQU)
Thu 09:44:52 AM 41.4340 -88.9062 62° Northeast 424 488 13,600 -2,198 Descending FlightAware ADS-B
Thu 09:45:27 AM 41.4675 -88.8206 62° Northeast 412 474 12,500 -1,200 Descending FlightAware ADS-B
Thu 09:46:07 AM 41.4675 -88.8206 62° Northeast 412 474 12,100 -282 Descending FlightAware ADS-B
Thu 09:46:52 AM 41.5462 -88.6387 60° Northeast 401 461 12,100  Level FlightAware ADS-B
Thu 09:47:29 AM 41.5863 -88.5625 55° Northeast 401 461 12,100 -400 Level FlightAware ADS-B (CYQU)
Thu 09:48:07 AM 41.6268 -88.4854 55° Northeast 400 460 11,600 -930 Descending FlightAware ADS-B
Thu 09:48:40 AM 41.6584 -88.4248 55° Northeast 404 465 11,000 -1,000 Descending FlightAware ADS-B (CYQU)
Thu 09:49:13 AM 41.6960 -88.3528 55° Northeast 401 461 10,500 -818 Descending FlightAware ADS-B
Thu 09:49:46 AM 41.7305 -88.2868 55° Northeast 400 460 10,100 -381 Descending FlightAware ADS-B (CYQU)
Thu 09:50:16 AM 41.7615 -88.2271 55° Northeast 398 458 10,100  Level FlightAware ADS-B (CYQU)
Thu 09:50:53 AM 41.7990 -88.1545 55° Northeast 355 409 10,100 -421 Level FlightAware ADS-B
Thu 09:51:13 AM 41.8164 -88.1207 55° Northeast 342 394 9,700 -1,350 Descending FlightAware ADS-B (CYQU)
Thu 09:51:33 AM 41.8347 -88.0852 55° Northeast 341 392 9,200 -1,350 Descending FlightAware ADS-B
Thu 09:51:53 AM 41.8529 -88.0499 55° Northeast 337 388 8,800 -1,500 Descending FlightAware ADS-B
Thu 09:52:09 AM 41.8444 -88.0663 235° Southwest 335 386 8,300 -1,714 Descending FlightAware ADS-B
Thu 09:52:28 AM 41.8811 -87.9863 58° Northeast 328 377 7,800 -1,385 Descending FlightAware ADS-B (CYQU)
Thu 09:52:48 AM 41.8847 -87.9500 82° East 314 361 7,400 -955 Descending FlightAware ADS-B (CYQU)
Thu 09:53:12 AM 41.8849 -87.9049 90° East 300 345 7,100 -419 Descending FlightAware ADS-B
Thu 09:53:31 AM 41.8847 -87.8733 91° East 295 339 7,100 -789 Level FlightAware ADS-B (CYQU)
Thu 09:53:50 AM 41.8843 -87.8326 91° East 293 337 6,600 -1,714 Descending FlightAware ADS-B (CYQU)
Thu 09:54:06 AM 41.8840 -87.8035 91° East 297 342 6,100 -1,650 Descending FlightAware ADS-B (CYQU)
Thu 09:54:30 AM 41.8841 -87.7612 90° East 297 342 5,500 -1,538 Descending FlightAware ADS-B (CYQU)
Thu 09:54:45 AM 41.8841 -87.7353 90° East 299 344 5,100 -1,600 Descending FlightAware ADS-B (CYQU)
Thu 09:55:00 AM 41.8841 -87.7037 90° East 296 341 4,700 -1,548 Descending FlightAware ADS-B (CYQU)
Thu 09:55:16 AM 41.8841 -87.6754 90° East 297 342 4,300 -1,059 Descending FlightAware ADS-B (CYQU)
Thu 09:55:34 AM 41.8841 -87.6432 90° East 293 337 4,100 -316 Descending FlightAware ADS-B
Thu 09:55:54 AM 41.8893 -87.6073 79° East 290 334 4,100  Level FlightAware ADS-B
Thu 09:55:58 AM 41.8924 -87.6006 58° Northeast 289 333 4,100  Level FlightAware ADS-B (CYQU)
Thu 09:56:14 AM 41.9079 -87.5844 38° Northeast 276 318 4,100  Level FlightAware ADS-B
Thu 09:56:25 AM 41.9210 -87.5812 10° North 254 292 4,100  Level FlightAware ADS-B
Thu 09:56:35 AM 41.9309 -87.5843 347° North 230 265 4,100  Level FlightAware ADS-B
Thu 09:56:55 AM 41.9428 -87.6022 312° West 185 213 4,100  Level FlightAware ADS-B
Thu 09:57:15 AM 41.9488 -87.6223 292° West 184 212 4,100  Level FlightAware ADS-B
Thu 09:57:30 AM 41.9496 -87.6252 292° West 183 211 4,100  Level FlightAware ADS-B (CYQU)
Thu 09:57:35 AM 41.9558 -87.6456 292° West 180 207 4,100  Level FlightAware ADS-B (CYQU)
Thu 09:57:55 AM 41.9612 -87.6624 293° West 170 196 4,100 -150 Level FlightAware ADS-B
Thu 09:58:15 AM 41.9654 -87.6845 284° West 151 174 4,000 -615 Descending FlightAware ADS-B
Thu 09:58:34 AM 41.9660 -87.7014 272° West 142 163 3,700 -789 Descending FlightAware ADS-B
Thu 09:58:53 AM 41.9663 -87.7182 271° West 136 157 3,500 -714 Descending FlightAware ADS-B (CYQU)
Thu 09:59:16 AM 41.9662 -87.7370 270° West 135 155 3,200 -682 Descending FlightAware ADS-B
Thu 09:59:37 AM 41.9661 -87.7552 269° West 137 158 3,000 -732 Descending FlightAware ADS-B
Thu 09:59:57 AM 41.9663 -87.7720 271° West 142 163 2,700 -900 Descending FlightAware ADS-B
Thu 10:00:17 AM 41.9666 -87.7888 272° West 126 145 2,400 -900 Descending FlightAware ADS-B
Thu 10:00:37 AM 41.9665 -87.8030 270° West 114 131 2,100 -732 Descending FlightAware ADS-B
Thu 10:00:58 AM 41.9659 -87.8184 267° West 121 139 1,900 -585 Descending FlightAware ADS-B
Thu 10:01:18 AM 41.9659 -87.8338 270° West 123 142 1,700 -750 Descending FlightAware ADS-B
Thu 10:01:38 AM 41.9658 -87.8467 270° West 125 144 1,400 -732 Descending FlightAware ADS-B
Thu 10:01:59 AM 41.9658 -87.8661 270° West 130 150 1,200 -732 Descending FlightAware ADS-B
Thu 10:02:19 AM 41.9657 -87.8816 270° West 131 151 900 -900 Descending FlightAware ADS-B
Thu 10:02:48 AM 41.9657 -87.9054 270° West 120 138 -1,862 Descending FlightAware ADS-B

Login

Don't have an account? Register now (free) for customized features, flight alerts, and more!